Time;durP1;ratioP1;P1;durP2;ratioP2;P2;SDS_P1;SDS_P2;PMS_P1;PMS_P2;Temp;Humidity;BMP_temperature;BMP_pressure;BME280_temperature;BME280_humidity;BME280_pressure;Samples;Min_cycle;Max_cycle;Signal;HPM_P1;HPM_P2
2022/11/09 00:00:41;;;;;;;;;;;;;;;;;;5052018;28;1200;-47
2022/11/09 00:03:09;;;;;;;;;;;;;;;;;;5051901;28;1094;-48
2022/11/09 00:05:36;;;;;;;;;;;;;;;;;;5051159;28;1175;-49
2022/11/09 00:08:05;;;;;;;;;;;;;;;;;;5050062;28;1269;-47
2022/11/09 00:10:32;;;;;;;;;;;;;;;;;;5051923;28;994;-47
2022/11/09 00:13:00;;;;;;;;;;;;;;;;;;5051885;28;1971;-48
2022/11/09 00:15:28;;;;;;;;;;;;;;;;;;5051938;28;1099;-46
2022/11/09 00:17:58;;;;;;;;;;;;;;;;;;5051536;28;1267;-47
2022/11/09 00:20:26;;;;;;;;;;;;;;;;;;5051632;28;1024;-47
2022/11/09 00:22:54;;;;;;;;;;;;;;;;;;5050320;28;2430;-46
2022/11/09 00:25:22;;;;;;;;;;;;;;;;;;5051348;28;995;-49
2022/11/09 00:27:49;;;;;;;;;;;;;;;;;;5051444;28;970;-49
2022/11/09 00:30:17;;;;;;;;;;;;;;;;;;5049980;28;1539;-48
2022/11/09 00:32:47;;;;;;;;;;;;;;;;;;5033978;28;1914;-47
2022/11/09 00:35:23;;;;;;;;;;;;;;;;;;5043403;28;1428;-49
2022/11/09 00:38:06;;;;;;;;;;;;;;;;;;5030053;28;1348;-48
2022/11/09 00:40:33;;;;;;;;;;;;;;;;;;5031495;28;1417;-47
2022/11/09 00:43:00;;;;;;;;;;;;;;;;;;5031494;28;1155;-49
2022/11/09 00:45:28;;;;;;;;;;;;;;;;;;5031396;28;1323;-48
2022/11/09 00:47:59;;;;;;;;;;;;;;;;;;5029846;28;1303;-47
2022/11/09 00:50:26;;;;;;;;;;;;;;;;;;5031197;28;1167;-48
2022/11/09 00:52:54;;;;;;;;;;;;;;;;;;5030862;28;1991;-48
2022/11/09 00:55:22;;;;;;;;;;;;;;;;;;5029712;28;958;-50
2022/11/09 00:57:51;;;;;;;;;;;;;;;;;;5029426;28;1254;-49
2022/11/09 01:00:22;;;;;;;;;;;;;;;;;;5066214;28;1421;-49
2022/11/09 01:02:51;;;;;;;;;;;;;;;;;;5049680;28;2351;-49
2022/11/09 01:05:18;;;;;;;;;;;;;;;;;;5050889;28;1397;-47
2022/11/09 01:07:47;;;;;;;;;;;;;;;;;;5049563;28;1274;-49
2022/11/09 01:10:15;;;;;;;;;;;;;;;;;;5050793;28;1142;-49
2022/11/09 01:12:45;;;;;;;;;;;;;;;;;;5049508;28;1972;-47
2022/11/09 01:15:13;;;;;;;;;;;;;;;;;;5033289;28;1219;-48
2022/11/09 01:17:41;;;;;;;;;;;;;;;;;;5050304;28;1181;-49
2022/11/09 01:20:08;;;;;;;;;;;;;;;;;;5050729;28;1062;-52
2022/11/09 01:22:36;;;;;;;;;;;;;;;;;;5049599;28;1046;-47
2022/11/09 01:25:03;;;;;;;;;;;;;;;;;;5049372;28;1102;-49
2022/11/09 01:27:31;;;;;;;;;;;;;;;;;;5050914;28;1049;-46
2022/11/09 01:29:59;;;;;;;;;;;;;;;;;;5050989;28;928;-47
2022/11/09 01:32:30;;;;;;;;;;;;;;;;;;5050578;28;1919;-49
2022/11/09 01:34:57;;;;;;;;;;;;;;;;;;5049372;28;1175;-49
2022/11/09 01:37:25;;;;;;;;;;;;;;;;;;5050875;28;1356;-48
2022/11/09 01:39:52;;;;;;;;;;;;;;;;;;5049406;28;1040;-48
2022/11/09 01:42:23;;;;;;;;;;;;;;;;;;5050596;28;1160;-49
2022/11/09 01:45:24;;;;;;;;;;;;;;;;;;5050561;28;971;-48
2022/11/09 01:47:55;;;;;;;;;;;;;;;;;;5038401;28;1310;-49
2022/11/09 01:50:43;;;;;;;;;;;;;;;;;;5032771;28;1352;-50
2022/11/09 01:53:16;;;;;;;;;;;;;;;;;;5048848;28;2043;-47
2022/11/09 01:55:47;;;;;;;;;;;;;;;;;;5050254;28;1061;-50
2022/11/09 01:58:17;;;;;;;;;;;;;;;;;;5050081;28;1406;-49
2022/11/09 02:00:48;;;;;;;;;;;;;;;;;;5050298;28;1038;-49
2022/11/09 02:03:22;;;;;;;;;;;;;;;;;;5032704;28;1064;-50
2022/11/09 02:05:50;;;;;;;;;;;;;;;;;;5048807;28;1275;-52
2022/11/09 02:08:19;;;;;;;;;;;;;;;;;;5050269;28;1243;-52
2022/11/09 02:10:46;;;;;;;;;;;;;;;;;;5049088;28;1556;-51
2022/11/09 02:13:15;;;;;;;;;;;;;;;;;;5048793;28;1995;-49
2022/11/09 02:15:43;;;;;;;;;;;;;;;;;;5050295;28;1296;-48
2022/11/09 02:18:12;;;;;;;;;;;;;;;;;;5048914;28;1352;-49
2022/11/09 02:20:49;;;;;;;;;;;;;;;;;;5049074;28;1471;-48
2022/11/09 02:23:17;;;;;;;;;;;;;;;;;;5048907;28;1107;-48
2022/11/09 02:25:49;;;;;;;;;;;;;;;;;;5050176;28;999;-50
2022/11/09 02:28:16;;;;;;;;;;;;;;;;;;5032865;28;1442;-48
2022/11/09 02:30:45;;;;;;;;;;;;;;;;;;5053617;28;1121;-52
2022/11/09 02:33:13;;;;;;;;;;;;;;;;;;5052215;28;1963;-46
2022/11/09 02:35:40;;;;;;;;;;;;;;;;;;5052288;28;1202;-49
2022/11/09 02:38:10;;;;;;;;;;;;;;;;;;5051808;28;1328;-50
2022/11/09 02:40:39;;;;;;;;;;;;;;;;;;5053538;28;1373;-52
2022/11/09 02:43:08;;;;;;;;;;;;;;;;;;5053334;28;910;-48
2022/11/09 02:45:36;;;;;;;;;;;;;;;;;;5052404;28;1190;-46
2022/11/09 02:48:04;;;;;;;;;;;;;;;;;;5052114;28;1266;-48
2022/11/09 02:50:35;;;;;;;;;;;;;;;;;;5052454;28;1405;-49
2022/11/09 02:53:05;;;;;;;;;;;;;;;;;;5053215;28;1920;-49
2022/11/09 02:55:36;;;;;;;;;;;;;;;;;;5051843;28;1425;-50
2022/11/09 02:58:05;;;;;;;;;;;;;;;;;;5051551;28;1431;-49
2022/11/09 03:00:33;;;;;;;;;;;;;;;;;;5051868;28;1404;-49
2022/11/09 03:03:02;;;;;;;;;;;;;;;;;;5051956;28;1224;-48
2022/11/09 03:05:29;;;;;;;;;;;;;;;;;;5051888;28;1350;-49
2022/11/09 03:08:01;;;;;;;;;;;;;;;;;;5051843;28;1425;-49
2022/11/09 03:10:32;;;;;;;;;;;;;;;;;;5051857;28;1359;-48
2022/11/09 03:13:00;;;;;;;;;;;;;;;;;;5051466;28;1907;-48
2022/11/09 03:15:28;;;;;;;;;;;;;;;;;;5052545;28;913;-48
2022/11/09 03:17:55;;;;;;;;;;;;;;;;;;5051361;28;1225;-46
2022/11/09 03:20:23;;;;;;;;;;;;;;;;;;5051410;28;1416;-49
2022/11/09 03:22:51;;;;;;;;;;;;;;;;;;5052714;28;1170;-48
2022/11/09 03:25:19;;;;;;;;;;;;;;;;;;5052678;28;1095;-50
2022/11/09 03:27:47;;;;;;;;;;;;;;;;;;5051438;28;1313;-49
2022/11/09 03:30:17;;;;;;;;;;;;;;;;;;5051070;28;1155;-48
2022/11/09 03:32:46;;;;;;;;;;;;;;;;;;5051136;28;1979;-51
2022/11/09 03:35:17;;;;;;;;;;;;;;;;;;5051098;28;1421;-49
2022/11/09 03:37:44;;;;;;;;;;;;;;;;;;5052519;28;1557;-49
2022/11/09 03:40:12;;;;;;;;;;;;;;;;;;5050949;28;1342;-47
2022/11/09 03:42:44;;;;;;;;;;;;;;;;;;5051018;28;1434;-50
2022/11/09 03:45:12;;;;;;;;;;;;;;;;;;5051089;28;1394;-49
2022/11/09 03:47:43;;;;;;;;;;;;;;;;;;5052183;28;1430;-49
2022/11/09 03:50:11;;;;;;;;;;;;;;;;;;5052000;28;1130;-49
2022/11/09 03:52:39;;;;;;;;;;;;;;;;;;5051849;28;1908;-48
2022/11/09 03:55:06;;;;;;;;;;;;;;;;;;5051931;28;1057;-47
2022/11/09 03:57:34;;;;;;;;;;;;;;;;;;5051917;28;1016;-46
2022/11/09 04:00:02;;;;;;;;;;;;;;;;;;5051951;28;1182;-50
2022/11/09 04:02:37;;;;;;;;;;;;;;;;;;5052139;28;1168;-46
2022/11/09 04:05:05;;;;;;;;;;;;;;;;;;5051751;28;1001;-50
2022/11/09 04:07:32;;;;;;;;;;;;;;;;;;5051921;28;1050;-50
2022/11/09 04:10:00;;;;;;;;;;;;;;;;;;5052216;28;1738;-51
2022/11/09 04:12:27;;;;;;;;;;;;;;;;;;5051742;28;1914;-50
2022/11/09 04:14:54;;;;;;;;;;;;;;;;;;5051698;28;1124;-51
2022/11/09 04:17:22;;;;;;;;;;;;;;;;;;5051852;28;1078;-48
2022/11/09 04:19:49;;;;;;;;;;;;;;;;;;5051498;28;1149;-47
2022/11/09 04:22:16;;;;;;;;;;;;;;;;;;5051204;28;1379;-51
2022/11/09 04:24:43;;;;;;;;;;;;;;;;;;5051301;28;1005;-51
2022/11/09 04:27:11;;;;;;;;;;;;;;;;;;5050532;28;2067;-50
2022/11/09 04:29:38;;;;;;;;;;;;;;;;;;5051445;28;981;-49
2022/11/09 04:32:05;;;;;;;;;;;;;;;;;;5051378;28;1048;-50
2022/11/09 04:34:32;;;;;;;;;;;;;;;;;;5051577;28;1961;-46
2022/11/09 04:36:59;;;;;;;;;;;;;;;;;;5051488;28;1424;-51
2022/11/09 04:39:27;;;;;;;;;;;;;;;;;;5050922;28;1082;-48
2022/11/09 04:41:54;;;;;;;;;;;;;;;;;;5051206;28;1391;-52
2022/11/09 04:44:21;;;;;;;;;;;;;;;;;;5050905;28;1592;-49
2022/11/09 04:46:48;;;;;;;;;;;;;;;;;;5051002;28;1027;-48
2022/11/09 04:49:16;;;;;;;;;;;;;;;;;;5050998;28;1013;-50
2022/11/09 04:51:43;;;;;;;;;;;;;;;;;;5050465;28;1085;-49
2022/11/09 04:54:11;;;;;;;;;;;;;;;;;;5050792;28;1963;-52
2022/11/09 04:56:38;;;;;;;;;;;;;;;;;;5051005;28;1372;-47
2022/11/09 04:59:06;;;;;;;;;;;;;;;;;;5051042;28;1284;-48
2022/11/09 05:01:33;;;;;;;;;;;;;;;;;;5051004;28;989;-49
2022/11/09 05:04:00;;;;;;;;;;;;;;;;;;5051263;28;942;-50
2022/11/09 05:06:31;;;;;;;;;;;;;;;;;;5050933;28;1313;-51
2022/11/09 05:09:08;;;;;;;;;;;;;;;;;;5051123;28;1150;-50
2022/11/09 05:11:35;;;;;;;;;;;;;;;;;;5050741;28;981;-49
2022/11/09 05:14:03;;;;;;;;;;;;;;;;;;5051118;28;1965;-47
2022/11/09 05:16:31;;;;;;;;;;;;;;;;;;5051233;28;1150;-47
2022/11/09 05:18:59;;;;;;;;;;;;;;;;;;5050930;28;1238;-51
2022/11/09 05:21:27;;;;;;;;;;;;;;;;;;5050712;28;1181;-51
2022/11/09 05:24:01;;;;;;;;;;;;;;;;;;5050539;28;1480;-49
2022/11/09 05:26:33;;;;;;;;;;;;;;;;;;5050921;28;1047;-51
2022/11/09 05:29:02;;;;;;;;;;;;;;;;;;5050677;28;898;-50
2022/11/09 05:31:30;;;;;;;;;;;;;;;;;;5050781;28;1170;-49
2022/11/09 05:33:58;;;;;;;;;;;;;;;;;;5050696;28;1915;-51
2022/11/09 05:36:26;;;;;;;;;;;;;;;;;;5050492;28;921;-50
2022/11/09 05:38:57;;;;;;;;;;;;;;;;;;5050704;28;920;-49
2022/11/09 05:41:26;;;;;;;;;;;;;;;;;;5050357;28;1315;-47
2022/11/09 05:43:53;;;;;;;;;;;;;;;;;;5050477;28;1073;-46
2022/11/09 05:46:21;;;;;;;;;;;;;;;;;;5050378;28;1144;-49
2022/11/09 05:48:48;;;;;;;;;;;;;;;;;;5050688;28;1156;-49
2022/11/09 05:51:16;;;;;;;;;;;;;;;;;;5050493;28;1051;-50
2022/11/09 05:53:43;;;;;;;;;;;;;;;;;;5039009;28;1919;-46
2022/11/09 05:56:13;;;;;;;;;;;;;;;;;;5030532;28;913;-48
2022/11/09 05:58:41;;;;;;;;;;;;;;;;;;5030289;28;1297;-49
2022/11/09 06:01:10;;;;;;;;;;;;;;;;;;5030567;28;955;-48
2022/11/09 06:03:39;;;;;;;;;;;;;;;;;;5045052;28;1183;-49
2022/11/09 06:06:07;;;;;;;;;;;;;;;;;;5054036;28;1019;-51
2022/11/09 06:08:35;;;;;;;;;;;;;;;;;;5053952;28;1313;-48
2022/11/09 06:11:06;;;;;;;;;;;;;;;;;;5054303;28;1364;-49
2022/11/09 06:13:37;;;;;;;;;;;;;;;;;;5054157;28;1975;-50
2022/11/09 06:16:05;;;;;;;;;;;;;;;;;;5054232;28;1360;-47
2022/11/09 06:18:34;;;;;;;;;;;;;;;;;;5054233;28;1514;-49
2022/11/09 06:21:03;;;;;;;;;;;;;;;;;;5053942;28;1190;-49
2022/11/09 06:23:31;;;;;;;;;;;;;;;;;;5054014;28;1043;-50
2022/11/09 06:25:59;;;;;;;;;;;;;;;;;;5053801;28;1178;-50
2022/11/09 06:28:27;;;;;;;;;;;;;;;;;;5053911;28;1066;-50
2022/11/09 06:30:59;;;;;;;;;;;;;;;;;;5053990;28;999;-49
2022/11/09 06:33:28;;;;;;;;;;;;;;;;;;5053510;28;1951;-47
2022/11/09 06:35:56;;;;;;;;;;;;;;;;;;5052379;28;1426;-52
2022/11/09 06:38:27;;;;;;;;;;;;;;;;;;5053510;28;1267;-48
2022/11/09 06:40:57;;;;;;;;;;;;;;;;;;5053615;28;1069;-46
2022/11/09 06:43:25;;;;;;;;;;;;;;;;;;5053528;28;1057;-50
2022/11/09 06:45:52;;;;;;;;;;;;;;;;;;5053315;28;1192;-50
2022/11/09 06:48:23;;;;;;;;;;;;;;;;;;5053206;28;973;-49
2022/11/09 06:50:51;;;;;;;;;;;;;;;;;;5053622;28;1149;-53
2022/11/09 06:53:18;;;;;;;;;;;;;;;;;;5053239;28;1971;-50
2022/11/09 06:55:47;;;;;;;;;;;;;;;;;;5053303;28;1072;-47
2022/11/09 06:58:17;;;;;;;;;;;;;;;;;;5052927;28;1075;-47
2022/11/09 07:00:44;;;;;;;;;;;;;;;;;;5053022;28;1196;-47
2022/11/09 07:03:15;;;;;;;;;;;;;;;;;;5053321;28;1422;-47
2022/11/09 07:05:44;;;;;;;;;;;;;;;;;;5052516;28;905;-47
2022/11/09 07:08:11;;;;;;;;;;;;;;;;;;5051632;28;1039;-47
2022/11/09 07:10:39;;;;;;;;;;;;;;;;;;5051883;28;1008;-46
2022/11/09 07:13:06;;;;;;;;;;;;;;;;;;5052068;28;1908;-48
2022/11/09 07:15:34;;;;;;;;;;;;;;;;;;5051701;28;949;-47
2022/11/09 07:18:02;;;;;;;;;;;;;;;;;;5052130;28;1277;-47
2022/11/09 07:20:31;;;;;;;;;;;;;;;;;;5052099;28;1080;-51
2022/11/09 07:22:58;;;;;;;;;;;;;;;;;;5052991;28;1708;-46
2022/11/09 07:25:26;;;;;;;;;;;;;;;;;;5052610;28;1217;-49
2022/11/09 07:27:53;;;;;;;;;;;;;;;;;;5052676;28;1070;-49
2022/11/09 07:30:21;;;;;;;;;;;;;;;;;;5052577;28;1744;-47
2022/11/09 07:32:48;;;;;;;;;;;;;;;;;;5052778;28;1097;-49
2022/11/09 07:35:36;;;;;;;;;;;;;;;;;;5052351;28;1666;-46
2022/11/09 07:38:04;;;;;;;;;;;;;;;;;;5052704;28;1211;-46
2022/11/09 07:40:32;;;;;;;;;;;;;;;;;;5052572;28;1371;-49
2022/11/09 07:43:00;;;;;;;;;;;;;;;;;;5052710;28;1120;-49
2022/11/09 07:45:28;;;;;;;;;;;;;;;;;;5052212;28;1141;-48
2022/11/09 07:47:56;;;;;;;;;;;;;;;;;;5052164;28;1262;-50
2022/11/09 07:50:24;;;;;;;;;;;;;;;;;;5052262;28;909;-48
2022/11/09 07:52:53;;;;;;;;;;;;;;;;;;5051936;28;1408;-48
2022/11/09 07:55:22;;;;;;;;;;;;;;;;;;5052101;28;1934;-48
2022/11/09 07:57:54;;;;;;;;;;;;;;;;;;5051923;28;1886;-48
2022/11/09 08:00:21;;;;;;;;;;;;;;;;;;5052180;28;1165;-48
2022/11/09 08:02:49;;;;;;;;;;;;;;;;;;5052322;28;914;-49
2022/11/09 08:05:17;;;;;;;;;;;;;;;;;;5051775;28;1356;-47
2022/11/09 08:07:45;;;;;;;;;;;;;;;;;;5052012;28;1674;-49
2022/11/09 08:10:13;;;;;;;;;;;;;;;;;;5051813;28;1410;-50
2022/11/09 08:12:40;;;;;;;;;;;;;;;;;;5051789;28;1047;-48
2022/11/09 08:15:08;;;;;;;;;;;;;;;;;;5051647;28;1972;-51
2022/11/09 08:17:35;;;;;;;;;;;;;;;;;;5051782;28;1096;-47
2022/11/09 08:20:03;;;;;;;;;;;;;;;;;;5052029;28;985;-50
2022/11/09 08:22:30;;;;;;;;;;;;;;;;;;5051738;28;1300;-47
2022/11/09 08:24:58;;;;;;;;;;;;;;;;;;5051734;28;1290;-48
2022/11/09 08:27:25;;;;;;;;;;;;;;;;;;5051027;28;1209;-47
2022/11/09 08:29:52;;;;;;;;;;;;;;;;;;5051695;28;935;-49
2022/11/09 08:32:20;;;;;;;;;;;;;;;;;;5051454;28;1317;-49
2022/11/09 08:34:50;;;;;;;;;;;;;;;;;;5051172;28;1914;-47
2022/11/09 08:37:17;;;;;;;;;;;;;;;;;;5051533;28;1139;-48
2022/11/09 08:39:45;;;;;;;;;;;;;;;;;;5051321;28;1172;-48
2022/11/09 08:42:12;;;;;;;;;;;;;;;;;;5051435;28;1253;-48
2022/11/09 08:44:39;;;;;;;;;;;;;;;;;;5051037;28;992;-47
2022/11/09 08:47:07;;;;;;;;;;;;;;;;;;5051471;28;1083;-50
2022/11/09 08:49:34;;;;;;;;;;;;;;;;;;5051725;28;1164;-50
2022/11/09 08:52:02;;;;;;;;;;;;;;;;;;5051324;28;1195;-48
2022/11/09 08:54:30;;;;;;;;;;;;;;;;;;5051110;28;1917;-47
2022/11/09 08:56:57;;;;;;;;;;;;;;;;;;5051091;28;1177;-48
2022/11/09 08:59:25;;;;;;;;;;;;;;;;;;5050862;28;1235;-50
2022/11/09 09:01:53;;;;;;;;;;;;;;;;;;5051218;28;1361;-48
2022/11/09 09:04:23;;;;;;;;;;;;;;;;;;5049593;28;1181;-51
2022/11/09 09:06:51;;;;;;;;;;;;;;;;;;5051140;28;1323;-50
2022/11/09 09:09:18;;;;;;;;;;;;;;;;;;5050779;28;1266;-47
2022/11/09 09:11:46;;;;;;;;;;;;;;;;;;5050815;28;1030;-45
2022/11/09 09:14:16;;;;;;;;;;;;;;;;;;5050726;28;1906;-46
2022/11/09 09:16:44;;;;;;;;;;;;;;;;;;5051083;28;1079;-50
2022/11/09 09:19:11;;;;;;;;;;;;;;;;;;5050987;28;992;-47
2022/11/09 09:21:39;;;;;;;;;;;;;;;;;;5050675;28;1045;-52
2022/11/09 09:24:06;;;;;;;;;;;;;;;;;;5050996;28;1265;-46
2022/11/09 09:26:34;;;;;;;;;;;;;;;;;;5050836;28;1047;-50
2022/11/09 09:29:02;;;;;;;;;;;;;;;;;;5051148;28;1077;-47
2022/11/09 09:31:29;;;;;;;;;;;;;;;;;;5049747;28;1204;-50
2022/11/09 09:33:56;;;;;;;;;;;;;;;;;;5050742;28;1979;-50
2022/11/09 09:36:24;;;;;;;;;;;;;;;;;;5050459;28;1152;-50
2022/11/09 09:38:52;;;;;;;;;;;;;;;;;;5053718;28;1004;-48
2022/11/09 09:41:27;;;;;;;;;;;;;;;;;;5054667;28;1013;-48
2022/11/09 09:43:57;;;;;;;;;;;;;;;;;;5054745;28;961;-49
2022/11/09 09:46:30;;;;;;;;;;;;;;;;;;5054841;28;958;-47
2022/11/09 09:49:00;;;;;;;;;;;;;;;;;;5054685;28;1210;-50
2022/11/09 09:51:28;;;;;;;;;;;;;;;;;;5054420;28;1019;-50
2022/11/09 09:53:59;;;;;;;;;;;;;;;;;;5054424;28;1973;-51
2022/11/09 09:56:29;;;;;;;;;;;;;;;;;;5053408;28;1008;-48
2022/11/09 09:59:01;;;;;;;;;;;;;;;;;;5054343;28;1315;-52
2022/11/09 10:01:34;;;;;;;;;;;;;;;;;;5054315;28;1624;-53
2022/11/09 10:04:01;;;;;;;;;;;;;;;;;;5054353;28;1274;-52
2022/11/09 10:06:39;;;;;;;;;;;;;;;;;;5053006;28;1193;-47
2022/11/09 10:09:14;;;;;;;;;;;;;;;;;;5054254;28;1245;-49
2022/11/09 10:11:44;;;;;;;;;;;;;;;;;;5054120;28;917;-50
2022/11/09 10:14:33;;;;;;;;;;;;;;;;;;5053803;28;1910;-50
2022/11/09 10:17:06;;;;;;;;;;;;;;;;;;5054119;28;1187;-48
2022/11/09 10:19:54;;;;;;;;;;;;;;;;;;5054253;28;1096;-49
2022/11/09 10:22:28;;;;;;;;;;;;;;;;;;5013878;28;1418;-48
2022/11/09 10:25:03;;;;;;;;;;;;;;;;;;5053914;28;1150;-50
2022/11/09 10:27:53;;;;;;;;;;;;;;;;;;5053769;28;1011;-49
2022/11/09 10:30:21;;;;;;;;;;;;;;;;;;5053871;28;1353;-49
2022/11/09 10:32:56;;;;;;;;;;;;;;;;;;5053936;28;1289;-50
2022/11/09 10:35:27;;;;;;;;;;;;;;;;;;5053676;28;1977;-49
2022/11/09 10:37:55;;;;;;;;;;;;;;;;;;5053501;28;1054;-51
2022/11/09 10:40:22;;;;;;;;;;;;;;;;;;5053582;28;1151;-48
2022/11/09 10:43:10;;;;;;;;;;;;;;;;;;5053555;28;1022;-48
2022/11/09 10:45:58;;;;;;;;;;;;;;;;;;5053182;28;1275;-51
2022/11/09 10:48:46;;;;;;;;;;;;;;;;;;5052876;28;1028;-50
2022/11/09 10:51:45;;;;;;;;;;;;;;;;;;5053496;28;1276;-51
2022/11/09 10:54:42;;;;;;;;;;;;;;;;;;5053030;28;1965;-51
2022/11/09 10:57:27;;;;;;;;;;;;;;;;;;5053503;28;1146;-49
2022/11/09 11:00:19;;;;;;;;;;;;;;;;;;5052772;28;1068;-50
2022/11/09 11:03:15;;;;;;;;;;;;;;;;;;5053260;28;1393;-49
2022/11/09 11:06:17;;;;;;;;;;;;;;;;;;5053522;28;1397;-51
2022/11/09 11:09:06;;;;;;;;;;;;;;;;;;5053415;28;1587;-48
2022/11/09 11:12:30;;;;;;;;;;;;;;;;;;5053129;28;1464;-48
2022/11/09 11:15:21;;;;;;;;;;;;;;;;;;5010918;28;1914;-49
2022/11/09 11:18:33;;;;;;;;;;;;;;;;;;5011170;28;1367;-50
2022/11/09 11:21:20;;;;;;;;;;;;;;;;;;5052808;28;1345;-50
2022/11/09 11:24:08;;;;;;;;;;;;;;;;;;5053048;28;965;-50
2022/11/09 11:26:58;;;;;;;;;;;;;;;;;;5053003;28;1341;-48
2022/11/09 11:29:50;;;;;;;;;;;;;;;;;;5052711;28;1315;-49
2022/11/09 11:32:35;;;;;;;;;;;;;;;;;;5052819;28;1068;-49
2022/11/09 11:35:30;;;;;;;;;;;;;;;;;;5052701;28;1975;-50
2022/11/09 11:38:34;;;;;;;;;;;;;;;;;;5052609;28;1757;-50
2022/11/09 11:41:39;;;;;;;;;;;;;;;;;;5052482;28;1156;-49
2022/11/09 11:44:25;;;;;;;;;;;;;;;;;;5052359;28;989;-48
2022/11/09 11:47:29;;;;;;;;;;;;;;;;;;5052456;28;1167;-49
2022/11/09 11:50:30;;;;;;;;;;;;;;;;;;5052248;28;928;-50
2022/11/09 11:53:19;;;;;;;;;;;;;;;;;;5052337;28;1363;-49
2022/11/09 11:56:05;;;;;;;;;;;;;;;;;;5052201;28;1961;-49
2022/11/09 11:59:00;;;;;;;;;;;;;;;;;;5052176;28;1099;-53
2022/11/09 12:01:58;;;;;;;;;;;;;;;;;;5051679;28;1128;-52
2022/11/09 12:05:03;;;;;;;;;;;;;;;;;;5052157;28;1327;-51
2022/11/09 12:07:49;;;;;;;;;;;;;;;;;;5052043;28;933;-48
2022/11/09 12:10:50;;;;;;;;;;;;;;;;;;5052170;28;1166;-49
2022/11/09 12:13:39;;;;;;;;;;;;;;;;;;5051798;28;1386;-51
2022/11/09 12:16:34;;;;;;;;;;;;;;;;;;5051605;28;1898;-48
2022/11/09 12:19:32;;;;;;;;;;;;;;;;;;5051674;28;1074;-49
2022/11/09 12:22:44;;;;;;;;;;;;;;;;;;5051675;28;989;-49
2022/11/09 12:25:36;;;;;;;;;;;;;;;;;;5051290;28;1173;-49
2022/11/09 12:28:26;;;;;;;;;;;;;;;;;;5051724;28;952;-47
2022/11/09 12:31:12;;;;;;;;;;;;;;;;;;5051672;28;1067;-53
2022/11/09 12:34:00;;;;;;;;;;;;;;;;;;5051211;28;1252;-49
2022/11/09 12:37:01;;;;;;;;;;;;;;;;;;5051521;28;1066;-46
2022/11/09 12:39:51;;;;;;;;;;;;;;;;;;5051413;28;1364;-51
2022/11/09 12:42:46;;;;;;;;;;;;;;;;;;5051588;28;966;-47
2022/11/09 12:45:37;;;;;;;;;;;;;;;;;;5051755;28;1259;-51
2022/11/09 12:48:30;;;;;;;;;;;;;;;;;;5051405;28;1270;-46
2022/11/09 12:51:17;;;;;;;;;;;;;;;;;;5051193;28;1220;-48
2022/11/09 12:54:09;;;;;;;;;;;;;;;;;;5051349;28;1348;-52
2022/11/09 12:56:55;;;;;;;;;;;;;;;;;;5051131;28;1063;-52
2022/11/09 12:59:54;;;;;;;;;;;;;;;;;;5050889;28;1460;-52
2022/11/09 13:03:29;;;;;;;;;;;;;;;;;;5050778;28;1092;-47
2022/11/09 13:07:14;;;;;;;;;;;;;;;;;;5050940;28;960;-46
2022/11/09 13:10:56;;;;;;;;;;;;;;;;;;5051188;28;1262;-48
2022/11/09 13:14:42;;;;;;;;;;;;;;;;;;5050908;28;1040;-50
2022/11/09 13:18:28;;;;;;;;;;;;;;;;;;5051174;28;1012;-51
2022/11/09 13:22:38;;;;;;;;;;;;;;;;;;5050864;28;996;-48
2022/11/09 13:26:27;;;;;;;;;;;;;;;;;;5049792;28;1333;-46
2022/11/09 13:30:33;;;;;;;;;;;;;;;;;;5049374;28;1046;-46
2022/11/09 13:34:32;;;;;;;;;;;;;;;;;;5050047;28;969;-51
2022/11/09 13:38:37;;;;;;;;;;;;;;;;;;5050742;28;1262;-49
2022/11/09 13:42:41;;;;;;;;;;;;;;;;;;5050870;28;1048;-45
2022/11/09 13:46:47;;;;;;;;;;;;;;;;;;5051009;28;1179;-48
2022/11/09 13:50:43;;;;;;;;;;;;;;;;;;5050787;28;1258;-51
2022/11/09 13:53:55;;;;;;;;;;;;;;;;;;5049634;28;1214;-48
2022/11/09 13:56:44;;;;;;;;;;;;;;;;;;5050458;28;1914;-46
2022/11/09 13:59:38;;;;;;;;;;;;;;;;;;5050260;28;1215;-48
2022/11/09 14:02:25;;;;;;;;;;;;;;;;;;5050499;28;995;-52
2022/11/09 14:05:29;;;;;;;;;;;;;;;;;;5050592;28;1379;-48
2022/11/09 14:08:26;;;;;;;;;;;;;;;;;;5050339;28;985;-48
2022/11/09 14:11:32;;;;;;;;;;;;;;;;;;5050566;28;1114;-47
2022/11/09 14:14:30;;;;;;;;;;;;;;;;;;5050194;28;1212;-48
2022/11/09 14:17:31;;;;;;;;;;;;;;;;;;5050417;28;1144;-49
2022/11/09 14:20:26;;;;;;;;;;;;;;;;;;5050174;28;1241;-49
2022/11/09 14:23:16;;;;;;;;;;;;;;;;;;5050473;28;984;-49
2022/11/09 14:26:06;;;;;;;;;;;;;;;;;;5052603;28;1054;-52
2022/11/09 14:28:52;;;;;;;;;;;;;;;;;;5053934;28;1063;-50
2022/11/09 14:31:42;;;;;;;;;;;;;;;;;;5053707;28;1071;-48
2022/11/09 14:34:29;;;;;;;;;;;;;;;;;;5053896;28;1314;-52
2022/11/09 14:37:15;;;;;;;;;;;;;;;;;;5053597;28;1000;-48
2022/11/09 14:40:02;;;;;;;;;;;;;;;;;;5053697;28;1374;-46
2022/11/09 14:43:06;;;;;;;;;;;;;;;;;;5053619;28;1194;-46
2022/11/09 14:45:53;;;;;;;;;;;;;;;;;;5053450;28;1182;-53
2022/11/09 14:48:40;;;;;;;;;;;;;;;;;;5053574;28;982;-46
2022/11/09 14:51:35;;;;;;;;;;;;;;;;;;5053542;28;1046;-52
2022/11/09 14:54:23;;;;;;;;;;;;;;;;;;5053359;28;1344;-47
2022/11/09 14:57:14;;;;;;;;;;;;;;;;;;5053409;28;1175;-52
2022/11/09 15:00:00;;;;;;;;;;;;;;;;;;5053159;28;1209;-52
2022/11/09 15:02:46;;;;;;;;;;;;;;;;;;5053376;28;945;-53
2022/11/09 15:05:40;;;;;;;;;;;;;;;;;;5052994;28;992;-52
2022/11/09 15:08:26;;;;;;;;;;;;;;;;;;5053152;28;1158;-48
2022/11/09 15:11:12;;;;;;;;;;;;;;;;;;5053229;28;1348;-52
2022/11/09 15:13:58;;;;;;;;;;;;;;;;;;5052888;28;1004;-50
2022/11/09 15:16:45;;;;;;;;;;;;;;;;;;5052768;28;1975;-51
2022/11/09 15:19:33;;;;;;;;;;;;;;;;;;5052820;28;1279;-52
2022/11/09 15:22:38;;;;;;;;;;;;;;;;;;5052897;28;968;-51
2022/11/09 15:25:27;;;;;;;;;;;;;;;;;;5052835;28;1106;-51
2022/11/09 15:28:13;;;;;;;;;;;;;;;;;;5052558;28;1512;-50
2022/11/09 15:30:59;;;;;;;;;;;;;;;;;;5052732;28;1009;-52
2022/11/09 15:33:46;;;;;;;;;;;;;;;;;;5052685;28;1179;-51
2022/11/09 15:36:34;;;;;;;;;;;;;;;;;;5052202;28;1912;-53
2022/11/09 15:39:21;;;;;;;;;;;;;;;;;;5052409;28;1050;-48
2022/11/09 15:42:09;;;;;;;;;;;;;;;;;;5052704;28;1010;-50
2022/11/09 15:44:57;;;;;;;;;;;;;;;;;;5052387;28;1179;-49
2022/11/09 15:47:54;;;;;;;;;;;;;;;;;;5052361;28;1102;-51
2022/11/09 15:50:40;;;;;;;;;;;;;;;;;;5051324;28;1190;-49
2022/11/09 15:53:26;;;;;;;;;;;;;;;;;;5052238;28;1387;-48
2022/11/09 15:56:19;;;;;;;;;;;;;;;;;;5051784;28;1974;-48
2022/11/09 15:59:05;;;;;;;;;;;;;;;;;;5051392;28;1367;-52
2022/11/09 16:01:51;;;;;;;;;;;;;;;;;;5052099;28;937;-51
2022/11/09 16:04:36;;;;;;;;;;;;;;;;;;5052213;28;952;-47
2022/11/09 16:07:22;;;;;;;;;;;;;;;;;;5050814;28;957;-49
2022/11/09 16:10:11;;;;;;;;;;;;;;;;;;5051851;28;932;-49
2022/11/09 16:12:57;;;;;;;;;;;;;;;;;;5051880;28;1464;-49
2022/11/09 16:15:43;;;;;;;;;;;;;;;;;;5051663;28;1908;-49
2022/11/09 16:18:28;;;;;;;;;;;;;;;;;;5051916;28;969;-49
2022/11/09 16:21:16;;;;;;;;;;;;;;;;;;5051644;28;1102;-48
2022/11/09 16:24:01;;;;;;;;;;;;;;;;;;5051628;28;1528;-50
2022/11/09 16:26:47;;;;;;;;;;;;;;;;;;5051870;28;1004;-51
2022/11/09 16:29:33;;;;;;;;;;;;;;;;;;5051771;28;1076;-49
2022/11/09 16:32:19;;;;;;;;;;;;;;;;;;5051592;28;956;-51
2022/11/09 16:35:05;;;;;;;;;;;;;;;;;;5050690;28;1003;-46
2022/11/09 16:38:11;;;;;;;;;;;;;;;;;;5051216;28;1080;-51
2022/11/09 16:40:58;;;;;;;;;;;;;;;;;;5051567;28;1163;-50
2022/11/09 16:43:46;;;;;;;;;;;;;;;;;;5051412;28;1038;-46
2022/11/09 16:46:32;;;;;;;;;;;;;;;;;;5051061;28;1076;-48
2022/11/09 16:49:18;;;;;;;;;;;;;;;;;;5051289;28;1296;-51
2022/11/09 16:52:04;;;;;;;;;;;;;;;;;;5051608;28;1118;-52
2022/11/09 16:54:50;;;;;;;;;;;;;;;;;;5031373;28;1230;-48
2022/11/09 16:57:36;;;;;;;;;;;;;;;;;;5031436;28;1930;-48
2022/11/09 17:00:22;;;;;;;;;;;;;;;;;;5031183;28;1060;-50
2022/11/09 17:03:21;;;;;;;;;;;;;;;;;;5031232;28;1073;-51
2022/11/09 17:06:09;;;;;;;;;;;;;;;;;;5031383;28;984;-52
2022/11/09 17:08:55;;;;;;;;;;;;;;;;;;5030990;28;1127;-51
2022/11/09 17:11:41;;;;;;;;;;;;;;;;;;5030938;28;1181;-48
2022/11/09 17:14:27;;;;;;;;;;;;;;;;;;5031133;28;969;-48
2022/11/09 17:17:13;;;;;;;;;;;;;;;;;;5030865;28;1924;-48
2022/11/09 17:20:05;;;;;;;;;;;;;;;;;;5031140;28;1195;-48
2022/11/09 17:22:52;;;;;;;;;;;;;;;;;;5030924;28;1085;-50
2022/11/09 17:25:38;;;;;;;;;;;;;;;;;;5030878;28;1141;-51
2022/11/09 17:28:25;;;;;;;;;;;;;;;;;;5030948;28;1052;-51
2022/11/09 17:31:12;;;;;;;;;;;;;;;;;;5030870;28;1331;-48
2022/11/09 17:33:58;;;;;;;;;;;;;;;;;;5030968;28;1199;-51
2022/11/09 17:36:45;;;;;;;;;;;;;;;;;;5030759;28;1906;-50
2022/11/09 17:39:48;;;;;;;;;;;;;;;;;;5030818;28;1340;-49
2022/11/09 17:42:34;;;;;;;;;;;;;;;;;;5030981;28;911;-51
2022/11/09 17:45:20;;;;;;;;;;;;;;;;;;5030875;28;1304;-51
2022/11/09 17:48:06;;;;;;;;;;;;;;;;;;5030832;28;1075;-49
2022/11/09 17:50:52;;;;;;;;;;;;;;;;;;5030728;28;1013;-46
2022/11/09 17:53:38;;;;;;;;;;;;;;;;;;5041446;28;1446;-48
2022/11/09 17:56:24;;;;;;;;;;;;;;;;;;5050471;28;1910;-49
2022/11/09 17:59:11;;;;;;;;;;;;;;;;;;5052274;28;1384;-50
2022/11/09 18:01:57;;;;;;;;;;;;;;;;;;5054611;28;1174;-49
2022/11/09 18:04:43;;;;;;;;;;;;;;;;;;5054325;28;1385;-50
2022/11/09 18:07:29;;;;;;;;;;;;;;;;;;5054062;28;1398;-48
2022/11/09 18:10:15;;;;;;;;;;;;;;;;;;5054121;28;1013;-47
2022/11/09 18:13:01;;;;;;;;;;;;;;;;;;5053909;28;1003;-47
2022/11/09 18:15:46;;;;;;;;;;;;;;;;;;5053871;28;1985;-48
2022/11/09 18:18:32;;;;;;;;;;;;;;;;;;5054077;28;1449;-48
2022/11/09 18:21:18;;;;;;;;;;;;;;;;;;5054145;28;1168;-50
2022/11/09 18:24:07;;;;;;;;;;;;;;;;;;5053988;28;1235;-46
2022/11/09 18:26:52;;;;;;;;;;;;;;;;;;5054075;28;973;-47
2022/11/09 18:29:38;;;;;;;;;;;;;;;;;;5054079;28;970;-49